Time;durP1;ratioP1;P1;durP2;ratioP2;P2;SDS_P1;SDS_P2;PMS_P1;PMS_P2;Temp;Humidity;BMP_temperature;BMP_pressure;BME280_temperature;BME280_humidity;BME280_pressure;Samples;Min_cycle;Max_cycle;Signal;HPM_P1;HPM_P2
2022/07/12 00:00:05;;;;;;;;;;;26.90;95.90;;;;;;5119013;28;19912;-53
2022/07/12 00:02:31;;;;;;;;;;;26.90;96.00;;;;;;5110153;28;20119;-50
2022/07/12 00:04:58;;;;;;;;;;;26.90;95.80;;;;;;5105499;28;19938;-52
2022/07/12 00:07:24;;;;;;;;;;;26.80;95.60;;;;;;5105048;28;20088;-51
2022/07/12 00:09:50;;;;;;;;;;;26.90;95.50;;;;;;5104940;28;19908;-56
2022/07/12 00:12:16;;;;;;;;;;;26.80;95.50;;;;;;5105104;28;20188;-52
2022/07/12 00:14:42;;;;;;;;;;;26.80;95.40;;;;;;5105435;28;19949;-54
2022/07/12 00:17:08;;;;;;;;;;;26.80;95.30;;;;;;5115113;28;20416;-57
2022/07/12 00:19:34;;;;;;;;;;;26.80;95.30;;;;;;5114058;28;20076;-53
2022/07/12 00:22:01;;;;;;;;;;;26.80;95.20;;;;;;5104835;28;20100;-54
2022/07/12 00:24:27;;;;;;;;;;;26.80;95.20;;;;;;5104975;28;20149;-54
2022/07/12 00:26:53;;;;;;;;;;;26.80;95.20;;;;;;5104670;28;19923;-54
2022/07/12 00:29:19;;;;;;;;;;;26.80;95.20;;;;;;5104887;28;20207;-58
2022/07/12 00:31:45;;;;;;;;;;;26.80;95.10;;;;;;5116154;28;19974;-52
2022/07/12 00:34:11;;;;;;;;;;;26.80;95.10;;;;;;5123801;28;20192;-54
2022/07/12 00:36:38;;;;;;;;;;;26.70;95.00;;;;;;5124503;28;19984;-53
2022/07/12 00:39:04;;;;;;;;;;;26.70;94.90;;;;;;5124525;28;19911;-58
2022/07/12 00:41:30;;;;;;;;;;;26.70;95.00;;;;;;5119702;28;19950;-52
2022/07/12 00:43:56;;;;;;;;;;;26.70;95.10;;;;;;5122401;28;20092;-53
2022/07/12 00:46:23;;;;;;;;;;;26.70;95.00;;;;;;5125100;28;20144;-57
2022/07/12 00:48:49;;;;;;;;;;;26.70;94.90;;;;;;5125089;28;19908;-64
2022/07/12 00:51:17;;;;;;;;;;;26.70;94.90;;;;;;5125065;28;19921;-63
2022/07/12 00:53:43;;;;;;;;;;;26.70;94.90;;;;;;5124884;28;19907;-64
2022/07/12 00:56:09;;;;;;;;;;;26.70;94.90;;;;;;5125050;28;19966;-65
2022/07/12 00:58:35;;;;;;;;;;;26.70;94.80;;;;;;5125364;28;20000;-56
2022/07/12 01:01:02;;;;;;;;;;;26.70;94.90;;;;;;5125137;28;19927;-56
2022/07/12 01:03:28;;;;;;;;;;;26.70;94.80;;;;;;5125180;28;19945;-60
2022/07/12 01:05:55;;;;;;;;;;;26.70;94.70;;;;;;5124683;28;19970;-58
2022/07/12 01:08:21;;;;;;;;;;;26.70;94.50;;;;;;5125090;28;19899;-56
2022/07/12 01:10:49;;;;;;;;;;;26.70;94.20;;;;;;5124797;28;19900;-58
2022/07/12 01:13:16;;;;;;;;;;;26.70;94.20;;;;;;5124953;28;20237;-55
2022/07/12 01:15:42;;;;;;;;;;;26.60;94.00;;;;;;5125432;28;19899;-56
2022/07/12 01:18:09;;;;;;;;;;;26.70;94.00;;;;;;5124745;28;19900;-56
2022/07/12 01:20:35;;;;;;;;;;;26.60;93.70;;;;;;5121439;28;19915;-58
2022/07/12 01:23:02;;;;;;;;;;;26.60;93.70;;;;;;5115606;28;19900;-54
2022/07/12 01:25:28;;;;;;;;;;;26.60;93.70;;;;;;5116122;28;19920;-56
2022/07/12 01:27:55;;;;;;;;;;;26.60;93.60;;;;;;5114186;28;19900;-55
2022/07/12 01:30:21;;;;;;;;;;;26.60;93.60;;;;;;5110294;28;19961;-56
2022/07/12 01:32:47;;;;;;;;;;;26.60;93.60;;;;;;5109944;28;19945;-54
2022/07/12 01:35:13;;;;;;;;;;;26.60;93.60;;;;;;5103612;28;19916;-54
2022/07/12 01:37:43;;;;;;;;;;;26.60;93.40;;;;;;5104332;28;19900;-57
2022/07/12 01:40:11;;;;;;;;;;;26.60;93.40;;;;;;5103742;28;19911;-57
2022/07/12 01:42:37;;;;;;;;;;;26.60;93.40;;;;;;5103383;28;19927;-57
2022/07/12 01:45:04;;;;;;;;;;;26.60;93.30;;;;;;5104231;28;19935;-56
2022/07/12 01:47:31;;;;;;;;;;;26.60;93.20;;;;;;5118398;28;20174;-54
2022/07/12 01:49:58;;;;;;;;;;;26.60;93.10;;;;;;5127367;28;19943;-54
2022/07/12 01:52:24;;;;;;;;;;;26.50;93.20;;;;;;5128524;28;19899;-55
2022/07/12 01:54:50;;;;;;;;;;;26.60;93.20;;;;;;5128711;28;19915;-56
2022/07/12 01:57:17;;;;;;;;;;;26.50;93.20;;;;;;5128242;28;20229;-57
2022/07/12 01:59:43;;;;;;;;;;;26.50;93.10;;;;;;5128720;28;19919;-56
2022/07/12 02:02:09;;;;;;;;;;;26.50;93.30;;;;;;5127952;28;19912;-54
2022/07/12 02:04:35;;;;;;;;;;;26.50;93.10;;;;;;5128362;28;19907;-55
2022/07/12 02:07:02;;;;;;;;;;;26.50;93.20;;;;;;5127810;28;20184;-57
2022/07/12 02:09:28;;;;;;;;;;;26.50;93.10;;;;;;5126211;28;19907;-54
2022/07/12 02:11:54;;;;;;;;;;;26.40;93.00;;;;;;5124018;28;19904;-57
2022/07/12 02:14:21;;;;;;;;;;;26.40;93.00;;;;;;5127999;28;19915;-56
2022/07/12 02:16:47;;;;;;;;;;;26.40;93.00;;;;;;5128102;28;20092;-54
2022/07/12 02:19:14;;;;;;;;;;;26.40;93.00;;;;;;5127821;28;19983;-55
2022/07/12 02:21:40;;;;;;;;;;;26.40;93.00;;;;;;5127859;28;19904;-55
2022/07/12 02:24:06;;;;;;;;;;;26.40;92.90;;;;;;5127822;28;20225;-55
2022/07/12 02:26:34;;;;;;;;;;;26.40;92.90;;;;;;5115137;28;19904;-55
2022/07/12 02:29:01;;;;;;;;;;;26.40;92.70;;;;;;5125494;28;20180;-55
2022/07/12 02:31:27;;;;;;;;;;;26.40;92.80;;;;;;5127414;28;19903;-55
2022/07/12 02:33:53;;;;;;;;;;;26.40;92.80;;;;;;5127802;28;19908;-56
2022/07/12 02:36:19;;;;;;;;;;;26.30;92.60;;;;;;5127342;28;19911;-56
2022/07/12 02:38:46;;;;;;;;;;;26.30;92.60;;;;;;5127695;28;19914;-58
2022/07/12 02:41:12;;;;;;;;;;;26.30;92.60;;;;;;5124340;28;19907;-57
2022/07/12 02:43:38;;;;;;;;;;;26.30;92.60;;;;;;5126308;28;19915;-56
2022/07/12 02:46:05;;;;;;;;;;;26.30;92.50;;;;;;5127259;28;19935;-55
2022/07/12 02:48:31;;;;;;;;;;;26.30;92.40;;;;;;5127483;28;19906;-54
2022/07/12 02:50:59;;;;;;;;;;;26.30;92.30;;;;;;5126956;28;20129;-59
2022/07/12 02:53:25;;;;;;;;;;;26.30;92.40;;;;;;5127350;28;19906;-55
2022/07/12 02:55:51;;;;;;;;;;;26.30;92.50;;;;;;5126855;28;19900;-57
2022/07/12 02:58:17;;;;;;;;;;;26.30;92.70;;;;;;5119502;28;19911;-55
2022/07/12 03:00:44;;;;;;;;;;;26.30;92.80;;;;;;5113314;28;19908;-56
2022/07/12 03:03:13;;;;;;;;;;;26.20;92.70;;;;;;5106686;28;19907;-58
2022/07/12 03:05:40;;;;;;;;;;;26.20;92.70;;;;;;5106866;28;20197;-58
2022/07/12 03:08:06;;;;;;;;;;;26.20;92.40;;;;;;5106914;28;19922;-57
2022/07/12 03:10:33;;;;;;;;;;;26.20;92.30;;;;;;5107001;28;19911;-55
2022/07/12 03:13:00;;;;;;;;;;;26.30;92.50;;;;;;5106371;28;19904;-58
2022/07/12 03:15:27;;;;;;;;;;;26.20;92.30;;;;;;5107101;28;20072;-58
2022/07/12 03:17:54;;;;;;;;;;;26.20;92.30;;;;;;5108382;28;19931;-55
2022/07/12 03:20:21;;;;;;;;;;;26.20;92.20;;;;;;5115925;28;19919;-58
2022/07/12 03:22:50;;;;;;;;;;;26.20;92.30;;;;;;5106314;28;19908;-56
2022/07/12 03:25:16;;;;;;;;;;;26.20;92.20;;;;;;5106770;28;19915;-58
2022/07/12 03:27:42;;;;;;;;;;;26.20;92.40;;;;;;5106057;28;19907;-54
2022/07/12 03:30:09;;;;;;;;;;;26.20;92.50;;;;;;5106738;28;19916;-55
2022/07/12 03:32:35;;;;;;;;;;;26.10;92.50;;;;;;5106246;28;19910;-56
2022/07/12 03:35:01;;;;;;;;;;;26.20;92.60;;;;;;5106454;28;19938;-57
2022/07/12 03:37:28;;;;;;;;;;;26.10;92.60;;;;;;5106058;28;20116;-55
2022/07/12 03:39:54;;;;;;;;;;;26.10;92.80;;;;;;5106657;28;20110;-56
2022/07/12 03:42:20;;;;;;;;;;;26.10;92.90;;;;;;5106088;28;19900;-59
2022/07/12 03:44:46;;;;;;;;;;;26.20;93.00;;;;;;5106274;28;19983;-55
2022/07/12 03:47:12;;;;;;;;;;;26.10;93.10;;;;;;5105957;28;19990;-55
2022/07/12 03:49:38;;;;;;;;;;;26.20;93.00;;;;;;5105824;28;20082;-55
2022/07/12 03:52:05;;;;;;;;;;;26.10;92.90;;;;;;5106064;28;20052;-56
2022/07/12 03:54:31;;;;;;;;;;;26.10;93.00;;;;;;5105960;28;19907;-62
2022/07/12 03:57:16;;;;;;;;;;;26.10;92.90;;;;;;5105725;28;19900;-57
2022/07/12 03:59:43;;;;;;;;;;;26.10;92.80;;;;;;5105971;28;19996;-56
2022/07/12 04:02:09;;;;;;;;;;;26.10;92.70;;;;;;5105620;28;19900;-58
2022/07/12 04:04:35;;;;;;;;;;;26.10;92.60;;;;;;5105954;28;20183;-59
2022/07/12 04:07:01;;;;;;;;;;;26.10;92.60;;;;;;5105918;28;19938;-56
2022/07/12 04:09:27;;;;;;;;;;;26.10;92.40;;;;;;5105624;28;19908;-59
2022/07/12 04:11:53;;;;;;;;;;;26.10;92.30;;;;;;5104873;28;19914;-56
2022/07/12 04:14:20;;;;;;;;;;;26.10;92.10;;;;;;5124654;28;20237;-58
2022/07/12 04:16:46;;;;;;;;;;;26.10;92.10;;;;;;5125532;28;20192;-56
2022/07/12 04:19:12;;;;;;;;;;;26.10;92.20;;;;;;5125751;28;19971;-56
2022/07/12 04:21:38;;;;;;;;;;;26.10;92.10;;;;;;5125648;28;20117;-56
2022/07/12 04:24:05;;;;;;;;;;;26.10;92.20;;;;;;5124679;28;20084;-55
2022/07/12 04:26:31;;;;;;;;;;;26.00;92.20;;;;;;5121790;28;20231;-57
2022/07/12 04:28:57;;;;;;;;;;;26.10;92.30;;;;;;5124585;28;19959;-56
2022/07/12 04:31:24;;;;;;;;;;;26.00;92.30;;;;;;5124768;28;19904;-55
2022/07/12 04:33:50;;;;;;;;;;;26.00;92.30;;;;;;5124725;28;19903;-56
2022/07/12 04:36:16;;;;;;;;;;;26.00;92.20;;;;;;5125135;28;20215;-55
2022/07/12 04:38:42;;;;;;;;;;;26.00;92.20;;;;;;5119881;28;19908;-55
2022/07/12 04:41:08;;;;;;;;;;;26.00;92.30;;;;;;5121602;28;19986;-52
2022/07/12 04:43:34;;;;;;;;;;;26.00;92.40;;;;;;5123841;28;19915;-55
2022/07/12 04:46:07;;;;;;;;;;;26.00;92.40;;;;;;5124565;28;19903;-58
2022/07/12 04:48:33;;;;;;;;;;;26.00;92.30;;;;;;5124704;28;19908;-55
2022/07/12 04:50:59;;;;;;;;;;;26.00;92.20;;;;;;5125028;28;20255;-56
2022/07/12 04:53:25;;;;;;;;;;;26.00;92.10;;;;;;5123207;28;19942;-61
2022/07/12 04:55:51;;;;;;;;;;;26.00;92.20;;;;;;5120415;28;20152;-55
2022/07/12 04:58:17;;;;;;;;;;;26.00;92.20;;;;;;5119123;28;19946;-56
2022/07/12 05:00:44;;;;;;;;;;;26.00;92.10;;;;;;5123599;28;19921;-55
2022/07/12 05:03:10;;;;;;;;;;;26.00;92.10;;;;;;5124674;28;19900;-55
2022/07/12 05:05:36;;;;;;;;;;;25.90;92.00;;;;;;5125960;28;19908;-54
2022/07/12 05:08:02;;;;;;;;;;;25.90;92.00;;;;;;5125164;28;20203;-54
2022/07/12 05:10:28;;;;;;;;;;;25.90;92.00;;;;;;5125639;28;20122;-55
2022/07/12 05:12:54;;;;;;;;;;;25.90;92.00;;;;;;5125399;28;19906;-57
2022/07/12 05:15:20;;;;;;;;;;;25.90;92.10;;;;;;5125361;28;19930;-55
2022/07/12 05:17:46;;;;;;;;;;;25.90;92.10;;;;;;5115299;28;19931;-55
2022/07/12 05:20:13;;;;;;;;;;;25.90;92.10;;;;;;5120822;28;19919;-56
2022/07/12 05:22:41;;;;;;;;;;;25.90;92.10;;;;;;5124879;28;19899;-58
2022/07/12 05:25:08;;;;;;;;;;;25.90;92.10;;;;;;5128709;28;19945;-59
2022/07/12 05:27:35;;;;;;;;;;;25.90;92.00;;;;;;5128624;28;19904;-64
2022/07/12 05:30:01;;;;;;;;;;;25.90;92.00;;;;;;5129556;28;19942;-59
2022/07/12 05:32:27;;;;;;;;;;;25.90;91.90;;;;;;5129349;28;19906;-59
2022/07/12 05:34:54;;;;;;;;;;;25.90;91.80;;;;;;5128855;28;19937;-55
2022/07/12 05:37:20;;;;;;;;;;;25.90;91.80;;;;;;5128930;28;20210;-56
2022/07/12 05:39:46;;;;;;;;;;;25.90;91.90;;;;;;5129422;28;19946;-55
2022/07/12 05:42:12;;;;;;;;;;;25.90;91.90;;;;;;5129274;28;20092;-55
2022/07/12 05:44:38;;;;;;;;;;;25.90;91.80;;;;;;5129161;28;19908;-58
2022/07/12 05:47:04;;;;;;;;;;;25.90;91.90;;;;;;5128815;28;19963;-57
2022/07/12 05:49:31;;;;;;;;;;;25.90;91.90;;;;;;5129094;28;19912;-57
2022/07/12 05:54:41;;;;;;;;;;;25.90;91.90;;;;;;5128978;28;19914;-54
2022/07/12 05:57:07;;;;;;;;;;;25.90;92.00;;;;;;5128524;28;19900;-55
2022/07/12 05:59:36;;;;;;;;;;;25.90;92.20;;;;;;5129342;28;20104;-55
2022/07/12 06:02:03;;;;;;;;;;;25.90;92.30;;;;;;5128658;28;19921;-57
2022/07/12 06:04:30;;;;;;;;;;;25.90;92.50;;;;;;5128637;28;20180;-56
2022/07/12 06:06:56;;;;;;;;;;;25.90;92.50;;;;;;5128336;28;19908;-56
2022/07/12 06:09:22;;;;;;;;;;;25.90;92.40;;;;;;5128648;28;19914;-57
2022/07/12 06:11:48;;;;;;;;;;;25.90;92.50;;;;;;5128277;28;19899;-58
2022/07/12 06:14:15;;;;;;;;;;;25.90;92.60;;;;;;5128335;28;19942;-56
2022/07/12 06:16:41;;;;;;;;;;;25.90;92.70;;;;;;5110035;28;19900;-56
2022/07/12 06:19:07;;;;;;;;;;;25.90;92.80;;;;;;5107455;28;19915;-59
2022/07/12 06:21:33;;;;;;;;;;;25.90;92.90;;;;;;5107541;28;19982;-57
2022/07/12 06:23:59;;;;;;;;;;;25.80;92.90;;;;;;5108397;28;19908;-60
2022/07/12 06:26:25;;;;;;;;;;;25.80;93.00;;;;;;5107926;28;20207;-57
2022/07/12 06:28:51;;;;;;;;;;;25.80;93.10;;;;;;5107676;28;19922;-57
2022/07/12 06:31:18;;;;;;;;;;;25.80;93.10;;;;;;5107564;28;19928;-56
2022/07/12 06:33:44;;;;;;;;;;;25.80;93.10;;;;;;5113453;28;20248;-55
2022/07/12 06:36:10;;;;;;;;;;;25.80;93.10;;;;;;5127212;28;19919;-56
2022/07/12 06:38:36;;;;;;;;;;;25.80;93.20;;;;;;5127922;28;20184;-54
2022/07/12 06:41:03;;;;;;;;;;;25.80;93.30;;;;;;5127466;28;19910;-55
2022/07/12 06:43:29;;;;;;;;;;;25.80;93.30;;;;;;5127470;28;19900;-54
2022/07/12 06:45:55;;;;;;;;;;;25.80;93.30;;;;;;5127876;28;20171;-55
2022/07/12 06:48:21;;;;;;;;;;;25.80;93.30;;;;;;5127753;28;20005;-56
2022/07/12 06:50:47;;;;;;;;;;;25.80;93.40;;;;;;5127447;28;19967;-59
2022/07/12 06:53:13;;;;;;;;;;;25.80;93.40;;;;;;5127745;28;19899;-54
2022/07/12 06:55:39;;;;;;;;;;;25.80;93.40;;;;;;5127297;28;19945;-55
2022/07/12 06:58:05;;;;;;;;;;;25.80;93.30;;;;;;5127579;28;20136;-55
2022/07/12 07:00:32;;;;;;;;;;;25.80;93.30;;;;;;5127511;28;19912;-59
2022/07/12 07:02:58;;;;;;;;;;;25.80;93.30;;;;;;5127228;28;19911;-56
2022/07/12 07:05:24;;;;;;;;;;;25.80;93.30;;;;;;5127297;28;19903;-56
2022/07/12 07:07:50;;;;;;;;;;;25.80;93.30;;;;;;5126940;28;20131;-58
2022/07/12 07:10:16;;;;;;;;;;;25.80;93.40;;;;;;5127792;28;19903;-55
2022/07/12 07:12:42;;;;;;;;;;;25.80;93.60;;;;;;5127600;28;19904;-56
2022/07/12 07:15:09;;;;;;;;;;;25.80;93.60;;;;;;5127375;28;19926;-56
2022/07/12 07:17:35;;;;;;;;;;;25.80;93.50;;;;;;5126160;28;19903;-56
2022/07/12 07:20:01;;;;;;;;;;;25.70;93.50;;;;;;5127999;28;19913;-57
2022/07/12 07:22:27;;;;;;;;;;;25.80;93.40;;;;;;5127089;28;19900;-55
2022/07/12 07:24:53;;;;;;;;;;;25.70;93.40;;;;;;5127600;28;20077;-55
2022/07/12 07:27:19;;;;;;;;;;;25.70;93.40;;;;;;5127310;28;19903;-56
2022/07/12 07:32:30;;;;;;;;;;;25.70;93.40;;;;;;5127106;28;20009;-57
2022/07/12 07:34:56;;;;;;;;;;;25.70;93.40;;;;;;5126612;28;19915;-61
2022/07/12 07:37:23;;;;;;;;;;;25.70;93.60;;;;;;5126637;28;19899;-56
2022/07/12 07:39:49;;;;;;;;;;;25.70;93.30;;;;;;5126775;28;20188;-52
2022/07/12 07:42:16;;;;;;;;;;;25.70;93.30;;;;;;5126709;28;19953;-58
2022/07/12 07:44:42;;;;;;;;;;;25.70;93.30;;;;;;5126780;28;19908;-60
2022/07/12 07:47:08;;;;;;;;;;;25.70;93.30;;;;;;5125809;28;19899;-57
2022/07/12 07:49:34;;;;;;;;;;;25.70;93.30;;;;;;5126905;28;19974;-56
2022/07/12 07:52:00;;;;;;;;;;;25.70;93.20;;;;;;5126743;28;19896;-55
2022/07/12 07:54:26;;;;;;;;;;;25.70;93.30;;;;;;5126633;28;19915;-57
2022/07/12 07:56:52;;;;;;;;;;;25.70;93.20;;;;;;5126106;28;19940;-59
2022/07/12 07:59:18;;;;;;;;;;;25.70;93.20;;;;;;5126152;28;19908;-56
2022/07/12 08:01:45;;;;;;;;;;;25.70;93.20;;;;;;5126376;28;20082;-56
2022/07/12 08:04:12;;;;;;;;;;;25.70;93.20;;;;;;5126087;28;20092;-57
2022/07/12 08:06:39;;;;;;;;;;;25.70;93.30;;;;;;5126074;28;19900;-56
2022/07/12 08:09:05;;;;;;;;;;;25.70;93.30;;;;;;5126357;28;19912;-55
2022/07/12 08:11:32;;;;;;;;;;;25.70;93.20;;;;;;5126052;28;19914;-56
2022/07/12 08:13:58;;;;;;;;;;;25.70;93.20;;;;;;5126221;28;19907;-56
2022/07/12 08:16:24;;;;;;;;;;;25.70;93.20;;;;;;5126211;28;19914;-55
2022/07/12 08:18:50;;;;;;;;;;;25.70;93.00;;;;;;5125932;28;19907;-56
2022/07/12 08:21:17;;;;;;;;;;;25.70;93.00;;;;;;5125662;28;19903;-57
2022/07/12 08:23:43;;;;;;;;;;;25.70;93.10;;;;;;5126381;28;19907;-56
2022/07/12 08:26:09;;;;;;;;;;;25.70;93.00;;;;;;5125723;28;19941;-57
2022/07/12 08:28:35;;;;;;;;;;;25.70;93.10;;;;;;5125639;28;19915;-59
2022/07/12 08:31:01;;;;;;;;;;;25.60;93.00;;;;;;5125830;28;19899;-55
2022/07/12 08:33:28;;;;;;;;;;;25.70;93.10;;;;;;5125527;28;19965;-55
2022/07/12 08:35:54;;;;;;;;;;;25.70;93.20;;;;;;5125357;28;19951;-56
2022/07/12 08:38:20;;;;;;;;;;;25.60;93.20;;;;;;5125656;28;19907;-55
2022/07/12 08:40:46;;;;;;;;;;;25.60;93.20;;;;;;5125890;28;19904;-61
2022/07/12 08:43:12;;;;;;;;;;;25.60;93.30;;;;;;5125396;28;19900;-61
2022/07/12 08:45:40;;;;;;;;;;;25.60;93.30;;;;;;5125402;28;20192;-56
2022/07/12 08:48:07;;;;;;;;;;;25.60;93.40;;;;;;5125467;28;19900;-55
2022/07/12 08:50:33;;;;;;;;;;;25.60;93.50;;;;;;5125418;28;19915;-55
2022/07/12 08:52:59;;;;;;;;;;;25.50;93.60;;;;;;5125336;28;19927;-57
2022/07/12 08:55:29;;;;;;;;;;;25.60;93.80;;;;;;5125561;28;19930;-56
2022/07/12 08:57:57;;;;;;;;;;;25.50;93.90;;;;;;5125348;28;19900;-55
2022/07/12 09:00:23;;;;;;;;;;;25.50;94.00;;;;;;5125914;28;20092;-59
2022/07/12 09:02:53;;;;;;;;;;;25.50;94.00;;;;;;5125532;28;19900;-56
2022/07/12 09:05:21;;;;;;;;;;;25.50;94.10;;;;;;5125654;28;19975;-54
2022/07/12 09:07:48;;;;;;;;;;;25.50;94.10;;;;;;5124726;28;19931;-56
2022/07/12 09:10:14;;;;;;;;;;;25.50;94.10;;;;;;5125320;28;20214;-56
2022/07/12 09:12:41;;;;;;;;;;;25.50;94.30;;;;;;5125040;28;20069;-56
2022/07/12 09:15:14;;;;;;;;;;;25.50;94.30;;;;;;5125175;28;19911;-54
2022/07/12 09:17:44;;;;;;;;;;;25.50;94.30;;;;;;5124939;28;20180;-60
2022/07/12 09:20:11;;;;;;;;;;;25.50;94.30;;;;;;5125130;28;19912;-56
2022/07/12 09:22:37;;;;;;;;;;;25.40;94.20;;;;;;5124687;28;20172;-54
2022/07/12 09:25:17;;;;;;;;;;;25.40;94.20;;;;;;5125322;28;19908;-57
2022/07/12 09:27:53;;;;;;;;;;;25.50;94.30;;;;;;5125001;28;19904;-58
2022/07/12 09:30:20;;;;;;;;;;;25.50;94.30;;;;;;5125077;28;19907;-62
2022/07/12 09:36:17;;;;;;;;;;;25.40;94.20;;;;;;5125256;28;19979;-55
2022/07/12 09:38:52;;;;;;;;;;;25.40;94.30;;;;;;5124617;28;19930;-56
2022/07/12 09:41:19;;;;;;;;;;;25.40;94.40;;;;;;5124942;28;19970;-58
2022/07/12 09:43:46;;;;;;;;;;;25.40;94.40;;;;;;5124927;28;19923;-57
2022/07/12 09:46:13;;;;;;;;;;;25.40;94.30;;;;;;5124778;28;19970;-58
2022/07/12 09:48:40;;;;;;;;;;;25.40;94.30;;;;;;5124907;28;19907;-59
2022/07/12 09:51:08;;;;;;;;;;;25.40;94.30;;;;;;5125103;28;19900;-54
2022/07/12 09:53:43;;;;;;;;;;;25.30;94.30;;;;;;5124682;28;20243;-58
2022/07/12 09:56:11;;;;;;;;;;;25.40;94.30;;;;;;5124694;28;19900;-55
2022/07/12 09:58:40;;;;;;;;;;;25.40;94.20;;;;;;5124934;28;19914;-57
2022/07/12 10:01:07;;;;;;;;;;;25.40;94.20;;;;;;5124372;28;20168;-61
2022/07/12 10:03:35;;;;;;;;;;;25.40;94.20;;;;;;5124578;28;19907;-55
2022/07/12 10:06:05;;;;;;;;;;;25.40;94.10;;;;;;5125086;28;19906;-55
2022/07/12 10:08:31;;;;;;;;;;;25.30;94.20;;;;;;5124403;28;19900;-57
2022/07/12 10:10:57;;;;;;;;;;;25.30;94.20;;;;;;5127651;28;19966;-63
2022/07/12 10:13:24;;;;;;;;;;;25.30;94.30;;;;;;5128736;28;19914;-55
2022/07/12 10:15:51;;;;;;;;;;;25.30;94.30;;;;;;5128134;28;19900;-54
2022/07/12 10:18:18;;;;;;;;;;;25.30;94.40;;;;;;5128123;28;19900;-54
2022/07/12 10:20:45;;;;;;;;;;;25.30;94.50;;;;;;5128317;28;19966;-55
2022/07/12 10:23:26;;;;;;;;;;;25.30;94.50;;;;;;5128292;28;19900;-57
2022/07/12 10:25:53;;;;;;;;;;;25.30;94.70;;;;;;5128323;28;19915;-54
2022/07/12 10:28:19;;;;;;;;;;;25.30;94.80;;;;;;5128145;28;19930;-56
2022/07/12 10:30:49;;;;;;;;;;;25.30;94.80;;;;;;5127977;28;19907;-59
2022/07/12 10:33:17;;;;;;;;;;;25.30;94.90;;;;;;5128327;28;19934;-53
2022/07/12 10:35:59;;;;;;;;;;;25.30;94.90;;;;;;5128076;28;19915;-55
2022/07/12 10:38:25;;;;;;;;;;;25.20;94.90;;;;;;5127591;28;20129;-57
2022/07/12 10:40:52;;;;;;;;;;;25.30;95.00;;;;;;5109685;28;19942;-55
2022/07/12 10:46:23;;;;;;;;;;;25.30;95.10;;;;;;5127910;28;19937;-61
2022/07/12 10:48:49;;;;;;;;;;;25.20;95.00;;;;;;5128012;28;19915;-55
2022/07/12 10:51:19;;;;;;;;;;;25.20;95.10;;;;;;5127619;28;19934;-56
2022/07/12 10:53:48;;;;;;;;;;;25.20;95.00;;;;;;5127649;28;19915;-55
2022/07/12 10:56:21;;;;;;;;;;;25.20;95.00;;;;;;5127371;28;19900;-55
2022/07/12 10:58:47;;;;;;;;;;;25.20;95.00;;;;;;5127941;28;19907;-58
2022/07/12 11:01:14;;;;;;;;;;;25.20;94.90;;;;;;5127571;28;19910;-57
2022/07/12 11:03:44;;;;;;;;;;;25.30;94.90;;;;;;5127484;28;20009;-56
2022/07/12 11:06:11;;;;;;;;;;;25.30;94.80;;;;;;5127350;28;19923;-54
2022/07/12 11:08:55;;;;;;;;;;;25.30;94.70;;;;;;5127763;28;20178;-55
2022/07/12 11:11:22;;;;;;;;;;;25.30;94.80;;;;;;5126280;28;19903;-55
2022/07/12 11:13:48;;;;;;;;;;;25.30;94.70;;;;;;5127533;28;19915;-56
2022/07/12 11:16:14;;;;;;;;;;;25.20;94.60;;;;;;5127337;28;19900;-55
2022/07/12 11:18:40;;;;;;;;;;;25.20;94.50;;;;;;5127100;28;19948;-57
2022/07/12 11:21:06;;;;;;;;;;;25.30;94.40;;;;;;5125831;28;20114;-57
2022/07/12 11:23:32;;;;;;;;;;;25.30;94.30;;;;;;5126785;28;20180;-58
2022/07/12 11:25:59;;;;;;;;;;;25.20;94.30;;;;;;5127113;28;19900;-57
2022/07/12 11:28:29;;;;;;;;;;;25.30;94.20;;;;;;5126057;28;19904;-55
2022/07/12 11:31:21;;;;;;;;;;;25.20;94.10;;;;;;5126864;28;19903;-55
2022/07/12 11:33:48;;;;;;;;;;;25.30;94.10;;;;;;5123326;28;19903;-56
2022/07/12 11:36:15;;;;;;;;;;;25.20;94.00;;;;;;5126470;28;19915;-57
2022/07/12 11:38:42;;;;;;;;;;;25.20;94.10;;;;;;5127274;28;19953;-53
2022/07/12 11:41:09;;;;;;;;;;;25.20;94.00;;;;;;5126452;28;19943;-53
2022/07/12 11:43:36;;;;;;;;;;;25.20;94.00;;;;;;5127016;28;20229;-57
2022/07/12 11:46:02;;;;;;;;;;;25.20;94.00;;;;;;5126722;28;19923;-56
2022/07/12 11:48:33;;;;;;;;;;;25.30;94.00;;;;;;5126338;28;19938;-53
2022/07/12 11:51:04;;;;;;;;;;;25.30;94.00;;;;;;5125436;28;19975;-54
2022/07/12 11:53:31;;;;;;;;;;;25.30;94.10;;;;;;5126473;28;19899;-54
2022/07/12 11:55:58;;;;;;;;;;;25.30;94.00;;;;;;5126238;28;19971;-54
2022/07/12 11:58:25;;;;;;;;;;;25.30;93.90;;;;;;5126580;28;19900;-55
2022/07/12 12:00:51;;;;;;;;;;;25.30;93.90;;;;;;5125582;28;19911;-54
2022/07/12 12:03:18;;;;;;;;;;;25.30;93.90;;;;;;5125925;28;19985;-58
2022/07/12 12:05:46;;;;;;;;;;;25.30;94.00;;;;;;5126509;28;19908;-56
2022/07/12 12:08:13;;;;;;;;;;;25.30;94.00;;;;;;5126353;28;19900;-63
2022/07/12 12:10:43;;;;;;;;;;;25.30;94.10;;;;;;5126224;28;19903;-62
2022/07/12 12:13:16;;;;;;;;;;;25.30;94.10;;;;;;5125842;28;19948;-63
2022/07/12 12:15:50;;;;;;;;;;;25.30;94.50;;;;;;5125883;28;20193;-54
2022/07/12 12:18:16;;;;;;;;;;;25.30;94.20;;;;;;5125620;28;19906;-56
2022/07/12 12:20:42;;;;;;;;;;;25.30;94.20;;;;;;5123629;28;19994;-54
2022/07/12 12:23:26;;;;;;;;;;;25.30;94.20;;;;;;5125693;28;20088;-55
2022/07/12 12:25:53;;;;;;;;;;;25.40;94.30;;;;;;5125707;28;19989;-55
2022/07/12 12:28:19;;;;;;;;;;;25.40;94.40;;;;;;5125413;28;19899;-59
2022/07/12 12:30:52;;;;;;;;;;;25.40;94.40;;;;;;5125585;28;19903;-57
2022/07/12 12:33:37;;;;;;;;;;;25.40;94.40;;;;;;5125523;28;19900;-55
2022/07/12 12:36:13;;;;;;;;;;;25.40;94.50;;;;;;5124174;28;19922;-53
2022/07/12 12:38:39;;;;;;;;;;;25.40;94.50;;;;;;5125575;28;20203;-56
2022/07/12 12:41:05;;;;;;;;;;;25.40;94.60;;;;;;5125955;28;20100;-54
2022/07/12 12:43:32;;;;;;;;;;;25.40;94.60;;;;;;5125814;28;19918;-54
2022/07/12 12:45:58;;;;;;;;;;;25.40;94.60;;;;;;5125601;28;19915;-60
2022/07/12 12:48:25;;;;;;;;;;;25.50;94.80;;;;;;5125387;28;19903;-55
2022/07/12 12:51:04;;;;;;;;;;;25.50;94.60;;;;;;5125029;28;20114;-59
2022/07/12 12:53:30;;;;;;;;;;;25.50;94.60;;;;;;5124631;28;19906;-54
2022/07/12 12:55:56;;;;;;;;;;;25.50;94.50;;;;;;5122866;28;19908;-55
2022/07/12 12:58:24;;;;;;;;;;;25.50;94.50;;;;;;5125615;28;20092;-55
2022/07/12 13:00:51;;;;;;;;;;;25.50;94.50;;;;;;5125134;28;19915;-57
2022/07/12 13:03:18;;;;;;;;;;;25.50;94.50;;;;;;5125585;28;19900;-56
2022/07/12 13:05:44;;;;;;;;;;;25.60;94.40;;;;;;5125014;28;19907;-61
2022/07/12 13:08:11;;;;;;;;;;;25.60;94.30;;;;;;5124316;28;20236;-55
2022/07/12 13:10:38;;;;;;;;;;;25.60;94.30;;;;;;5124852;28;19907;-54
2022/07/12 13:13:05;;;;;;;;;;;25.60;94.20;;;;;;5124869;28;19900;-56
2022/07/12 13:15:31;;;;;;;;;;;25.60;94.10;;;;;;5126049;28;19940;-56
2022/07/12 13:17:58;;;;;;;;;;;25.60;94.00;;;;;;5125622;28;19908;-57
2022/07/12 13:20:25;;;;;;;;;;;25.70;94.00;;;;;;5125689;28;19945;-53
2022/07/12 13:22:51;;;;;;;;;;;25.70;93.90;;;;;;5124171;28;19945;-54
2022/07/12 13:25:18;;;;;;;;;;;25.70;93.80;;;;;;5125549;28;19911;-54
2022/07/12 13:27:44;;;;;;;;;;;25.70;93.80;;;;;;5124860;28;19941;-55
2022/07/12 13:30:11;;;;;;;;;;;25.70;93.80;;;;;;5125397;28;19904;-55
2022/07/12 13:32:37;;;;;;;;;;;25.70;93.70;;;;;;5124853;28;20231;-59
2022/07/12 13:35:04;;;;;;;;;;;25.70;93.80;;;;;;5124844;28;19912;-56
2022/07/12 13:37:30;;;;;;;;;;;25.70;93.70;;;;;;5118392;28;19915;-51
2022/07/12 13:40:13;;;;;;;;;;;25.80;93.90;;;;;;5117055;28;19946;-55
2022/07/12 13:42:41;;;;;;;;;;;25.80;94.00;;;;;;5122920;28;19916;-56
2022/07/12 13:45:09;;;;;;;;;;;25.80;94.00;;;;;;5119050;28;19918;-54
2022/07/12 13:47:36;;;;;;;;;;;25.80;94.00;;;;;;5128491;28;19915;-58
2022/07/12 13:50:02;;;;;;;;;;;25.80;94.10;;;;;;5128818;28;19945;-54
2022/07/12 13:52:28;;;;;;;;;;;25.80;94.10;;;;;;5124040;28;19904;-57
2022/07/12 13:54:54;;;;;;;;;;;25.80;94.20;;;;;;5117336;28;19911;-54
2022/07/12 13:57:21;;;;;;;;;;;25.90;94.30;;;;;;5107950;28;20211;-56
2022/07/12 13:59:47;;;;;;;;;;;25.90;94.30;;;;;;5108435;28;19945;-57
2022/07/12 14:02:13;;;;;;;;;;;25.90;94.20;;;;;;5108052;28;19908;-59
2022/07/12 14:04:39;;;;;;;;;;;25.90;94.40;;;;;;5108086;28;19904;-56
2022/07/12 14:07:05;;;;;;;;;;;25.90;94.50;;;;;;5107952;28;19924;-54
2022/07/12 14:09:31;;;;;;;;;;;25.90;94.40;;;;;;5124391;28;19907;-58
2022/07/12 14:11:58;;;;;;;;;;;25.90;94.40;;;;;;5125327;28;19915;-56
2022/07/12 14:17:08;;;;;;;;;;;25.90;94.40;;;;;;5123508;28;20258;-57
2022/07/12 14:19:34;;;;;;;;;;;25.90;94.40;;;;;;5127193;28;20087;-55
2022/07/12 14:22:01;;;;;;;;;;;25.90;94.50;;;;;;5123890;28;19914;-55
2022/07/12 14:24:27;;;;;;;;;;;26.00;94.60;;;;;;5118551;28;19927;-55
2022/07/12 14:26:53;;;;;;;;;;;26.00;94.80;;;;;;5124986;28;20219;-54
2022/07/12 14:29:19;;;;;;;;;;;26.00;94.80;;;;;;5122710;28;19904;-59